createdAt,value
2023-01-27T00:00:24.481Z,79.67
2023-01-27T00:02:26.147Z,79.68
2023-01-27T00:04:27.731Z,79.45
2023-01-27T00:06:29.298Z,78.60
2023-01-27T00:08:30.903Z,79.17
2023-01-27T00:10:32.526Z,79.42
2023-01-27T00:12:52.475Z,78.69
2023-01-27T00:14:54.048Z,78.46
2023-01-27T00:16:55.660Z,78.30
2023-01-27T00:18:57.316Z,77.77
2023-01-27T00:21:17.377Z,77.76
2023-01-27T00:23:41.409Z,77.40
2023-01-27T00:25:43.009Z,77.00
2023-01-27T00:27:44.976Z,76.95
2023-01-27T00:29:47.755Z,77.13
2023-01-27T00:32:07.957Z,76.37
2023-01-27T00:34:09.965Z,76.00
2023-01-27T00:36:11.874Z,76.40
2023-01-27T00:38:13.456Z,76.42
2023-01-27T00:40:16.691Z,76.31
2023-01-27T00:42:18.247Z,75.98
2023-01-27T00:44:19.895Z,76.19
2023-01-27T00:46:23.510Z,76.21
2023-01-27T00:48:25.060Z,76.20
2023-01-27T00:50:26.653Z,75.90
2023-01-27T00:52:28.287Z,75.29
2023-01-27T00:54:29.834Z,75.85
2023-01-27T00:56:31.505Z,75.69
2023-01-27T00:58:33.570Z,76.48
2023-01-27T01:00:35.155Z,75.82
2023-01-27T01:02:36.754Z,76.22
2023-01-27T01:04:38.446Z,75.93
2023-01-27T01:06:40.068Z,76.66
2023-01-27T01:08:42.353Z,76.82
2023-01-27T01:10:44.528Z,76.78
2023-01-27T01:12:46.164Z,76.45
2023-01-27T01:14:47.786Z,76.33
2023-01-27T01:16:49.393Z,75.46
2023-01-27T01:18:51.036Z,75.38
2023-01-27T01:20:52.592Z,75.54
2023-01-27T01:22:54.327Z,75.37
2023-01-27T01:24:55.949Z,74.76
2023-01-27T01:26:57.556Z,75.08
2023-01-27T01:28:59.255Z,74.93
2023-01-27T01:31:09.131Z,75.15
2023-01-27T01:33:11.044Z,75.04
2023-01-27T01:35:12.619Z,75.01
2023-01-27T01:37:14.287Z,74.64
2023-01-27T01:39:15.887Z,74.60
2023-01-27T01:41:19.821Z,74.90
2023-01-27T01:43:22.939Z,74.90
2023-01-27T01:45:36.944Z,75.27
2023-01-27T01:47:38.668Z,74.97
2023-01-27T01:49:41.036Z,74.52
2023-01-27T01:51:54.907Z,74.68
2023-01-27T01:54:09.810Z,74.47
2023-01-27T01:56:15.943Z,74.94
2023-01-27T01:58:17.613Z,74.87
2023-01-27T02:00:19.431Z,74.87
2023-01-27T02:02:23.783Z,74.76
2023-01-27T02:04:28.681Z,75.09
2023-01-27T02:06:34.820Z,75.06
2023-01-27T02:08:42.990Z,74.74
2023-01-27T02:10:44.811Z,75.93
2023-01-27T02:12:46.837Z,77.47
2023-01-27T02:14:48.469Z,78.86
2023-01-27T02:16:50.423Z,79.70
2023-01-27T02:18:52.034Z,80.94
2023-01-27T02:20:54.618Z,82.71
2023-01-27T02:23:22.998Z,83.51
2023-01-27T02:25:35.452Z,82.73
2023-01-27T02:27:37.093Z,82.83
2023-01-27T02:29:38.676Z,83.42
2023-01-27T02:31:40.636Z,82.85
2023-01-27T02:33:42.337Z,82.17
2023-01-27T02:36:04.044Z,81.42
2023-01-27T02:38:06.487Z,80.33
2023-01-27T02:40:09.155Z,80.43
2023-01-27T02:42:12.755Z,79.33
2023-01-27T02:44:14.370Z,78.40
2023-01-27T02:46:16.308Z,77.54
2023-01-27T02:48:17.975Z,77.63
2023-01-27T02:50:19.682Z,76.80
2023-01-27T02:52:22.300Z,76.75
2023-01-27T02:54:25.927Z,76.39
2023-01-27T02:56:27.689Z,75.84
2023-01-27T02:58:29.350Z,76.73
2023-01-27T03:00:30.930Z,76.50
2023-01-27T03:02:32.579Z,76.31
2023-01-27T03:04:38.916Z,76.23
2023-01-27T03:06:40.530Z,76.70
2023-01-27T03:08:42.618Z,76.52
2023-01-27T03:10:44.499Z,75.69
2023-01-27T03:12:46.147Z,75.52
2023-01-27T03:15:07.769Z,75.45
2023-01-27T03:17:27.876Z,75.62
2023-01-27T03:19:29.582Z,75.18
2023-01-27T03:21:31.155Z,75.52
2023-01-27T03:23:34.908Z,76.21
2023-01-27T03:25:36.576Z,76.68
2023-01-27T03:27:38.219Z,76.54
2023-01-27T03:29:58.193Z,76.83
2023-01-27T03:31:59.817Z,76.74
2023-01-27T03:34:01.468Z,76.51
2023-01-27T03:36:22.881Z,76.06
2023-01-27T03:38:42.968Z,76.08
2023-01-27T03:41:03.501Z,76.17
2023-01-27T03:43:23.608Z,75.87
2023-01-27T03:45:43.625Z,76.16
2023-01-27T03:47:45.253Z,75.90
2023-01-27T03:49:46.858Z,76.20
2023-01-27T03:51:48.448Z,75.86
2023-01-27T03:53:50.519Z,75.84
2023-01-27T03:55:52.224Z,76.08
2023-01-27T03:57:53.790Z,76.27
2023-01-27T03:59:55.366Z,77.54
2023-01-27T04:02:15.515Z,78.66
2023-01-27T04:04:35.882Z,81.77
2023-01-27T04:06:54.799Z,82.64
2023-01-27T04:08:56.734Z,83.05
2023-01-27T04:11:24.238Z,82.55
2023-01-27T04:13:25.819Z,81.74
2023-01-27T04:15:27.445Z,81.42
2023-01-27T04:17:30.733Z,80.40
2023-01-27T04:19:32.619Z,79.66
2023-01-27T04:21:34.789Z,78.82
2023-01-27T04:23:36.405Z,78.68
2023-01-27T04:25:38.016Z,78.45
2023-01-27T04:27:39.609Z,78.11
2023-01-27T04:29:42.659Z,77.55
2023-01-27T04:31:44.342Z,76.98
2023-01-27T04:33:46.047Z,77.06
2023-01-27T04:35:47.681Z,76.87
2023-01-27T04:37:49.354Z,76.79
2023-01-27T04:39:50.889Z,76.82
2023-01-27T04:41:52.646Z,76.30
2023-01-27T04:43:54.361Z,75.91
2023-01-27T04:45:56.034Z,76.08
2023-01-27T04:47:57.732Z,75.71
2023-01-27T04:49:59.342Z,75.88
2023-01-27T04:52:00.911Z,75.53
2023-01-27T04:54:03.962Z,75.67
2023-01-27T04:56:12.338Z,76.24
2023-01-27T04:58:14.676Z,76.29
2023-01-27T05:00:17.517Z,75.94
2023-01-27T05:02:19.130Z,76.50
2023-01-27T05:04:20.791Z,76.61
2023-01-27T05:06:23.327Z,77.78
2023-01-27T05:08:25.019Z,77.82
2023-01-27T05:10:26.603Z,77.59
2023-01-27T05:12:28.221Z,78.87
2023-01-27T05:14:29.827Z,79.16
2023-01-27T05:16:31.650Z,79.22
2023-01-27T05:18:33.359Z,79.12
2023-01-27T05:20:35.105Z,79.62
2023-01-27T05:22:36.703Z,80.41
2023-01-27T05:24:38.369Z,80.07
2023-01-27T05:26:40.815Z,80.76
2023-01-27T05:28:44.831Z,80.29
2023-01-27T05:30:46.473Z,80.17
2023-01-27T05:32:48.136Z,80.56
2023-01-27T05:34:49.763Z,80.53
2023-01-27T05:36:51.646Z,79.07
2023-01-27T05:38:54.291Z,80.44
2023-01-27T05:40:57.795Z,81.01
2023-01-27T05:42:59.439Z,80.77
2023-01-27T05:45:01.048Z,79.88
2023-01-27T05:47:02.902Z,79.60
2023-01-27T05:49:05.578Z,78.74
2023-01-27T05:51:07.968Z,79.23
2023-01-27T05:53:09.727Z,79.01
2023-01-27T05:55:11.840Z,78.84
2023-01-27T05:57:13.699Z,78.79
2023-01-27T05:59:15.444Z,78.71
2023-01-27T06:01:18.162Z,77.72
2023-01-27T06:03:19.995Z,77.17
2023-01-27T06:05:21.556Z,77.20
2023-01-27T06:07:23.157Z,77.27
2023-01-27T06:09:24.804Z,76.44
2023-01-27T06:11:26.679Z,76.93
2023-01-27T06:13:28.569Z,77.67
2023-01-27T06:15:30.201Z,77.83
2023-01-27T06:17:31.815Z,78.68
2023-01-27T06:19:33.428Z,77.94
2023-01-27T06:21:35.068Z,77.86
2023-01-27T06:23:36.983Z,77.16
2023-01-27T06:25:44.361Z,77.76
2023-01-27T06:27:45.950Z,78.39
2023-01-27T06:29:47.557Z,78.55
2023-01-27T06:31:49.406Z,79.65
2023-01-27T06:33:51.346Z,79.49
2023-01-27T06:36:01.591Z,80.06
2023-01-27T06:38:04.469Z,80.55
2023-01-27T06:40:06.435Z,81.18
2023-01-27T06:42:09.795Z,81.94
2023-01-27T06:44:11.489Z,81.99
2023-01-27T06:46:13.322Z,80.74
2023-01-27T06:48:14.924Z,80.65
2023-01-27T06:50:16.558Z,80.10
2023-01-27T06:52:18.559Z,79.88
2023-01-27T06:54:20.186Z,79.25
2023-01-27T06:56:21.827Z,78.22
2023-01-27T06:58:23.544Z,77.47
2023-01-27T07:00:25.336Z,76.38
2023-01-27T07:02:27.058Z,76.60
2023-01-27T07:04:29.893Z,76.65
2023-01-27T07:06:31.521Z,76.80
2023-01-27T07:08:33.155Z,76.81
2023-01-27T07:10:34.792Z,75.57
2023-01-27T07:12:37.986Z,76.35
2023-01-27T07:14:39.683Z,75.80
2023-01-27T07:16:41.388Z,75.20
2023-01-27T07:18:43.002Z,74.99
2023-01-27T07:20:44.607Z,74.25
2023-01-27T07:22:46.225Z,73.94
2023-01-27T07:24:47.807Z,74.32
2023-01-27T07:26:49.353Z,73.95
2023-01-27T07:28:50.922Z,73.87
2023-01-27T07:30:52.594Z,72.98
2023-01-27T07:32:55.335Z,72.83
2023-01-27T07:34:57.050Z,72.47
2023-01-27T07:36:59.033Z,72.94
2023-01-27T07:39:00.879Z,73.03
2023-01-27T07:41:06.374Z,72.68
2023-01-27T07:43:07.989Z,71.97
2023-01-27T07:45:10.095Z,72.58
2023-01-27T07:47:11.674Z,73.11
2023-01-27T07:49:13.331Z,72.96
2023-01-27T07:51:15.462Z,72.73
2023-01-27T07:53:17.168Z,72.85
2023-01-27T07:55:18.779Z,73.18
2023-01-27T07:57:20.445Z,73.09
2023-01-27T07:59:22.074Z,72.63
2023-01-27T08:01:24.149Z,72.04
2023-01-27T08:03:27.358Z,71.93
2023-01-27T08:05:29.761Z,71.77
2023-01-27T08:07:31.403Z,71.61
2023-01-27T08:09:32.977Z,71.42
2023-01-27T08:11:34.962Z,72.51
2023-01-27T08:13:37.010Z,73.13
2023-01-27T08:15:38.802Z,74.17
2023-01-27T08:17:40.384Z,75.07
2023-01-27T08:19:41.978Z,75.29
2023-01-27T08:21:43.525Z,76.63
2023-01-27T08:23:45.401Z,76.48
2023-01-27T08:25:54.810Z,76.86
2023-01-27T08:27:56.903Z,77.33
2023-01-27T08:29:58.509Z,76.75
2023-01-27T08:32:00.331Z,76.43
2023-01-27T08:34:02.031Z,77.37
2023-01-27T08:36:09.270Z,77.18
2023-01-27T08:38:15.489Z,76.54
2023-01-27T08:40:18.069Z,75.51
2023-01-27T08:42:19.741Z,75.29
2023-01-27T08:44:21.532Z,75.69
2023-01-27T08:46:23.436Z,76.23
2023-01-27T08:48:24.994Z,74.93
2023-01-27T08:50:26.685Z,75.71
2023-01-27T08:52:30.864Z,76.28
2023-01-27T08:54:32.566Z,76.49
2023-01-27T08:56:34.295Z,76.20
2023-01-27T08:58:36.321Z,76.06
2023-01-27T09:00:37.889Z,76.62
2023-01-27T09:02:39.863Z,76.49
2023-01-27T09:04:44.340Z,76.73
2023-01-27T09:06:48.445Z,76.37
2023-01-27T09:09:11.244Z,75.98
2023-01-27T09:11:16.457Z,75.13
2023-01-27T09:13:18.373Z,74.77
2023-01-27T09:15:20.020Z,74.09
2023-01-27T09:17:21.639Z,73.96
2023-01-27T09:19:23.398Z,73.66
2023-01-27T09:21:25.902Z,73.86
2023-01-27T09:23:27.491Z,74.51
2023-01-27T09:25:29.232Z,76.26
2023-01-27T09:27:39.213Z,76.67
2023-01-27T09:29:41.347Z,77.71
2023-01-27T09:31:43.127Z,78.87
2023-01-27T09:33:44.955Z,78.75
2023-01-27T09:35:49.849Z,79.47
2023-01-27T09:37:55.367Z,80.11
2023-01-27T09:39:59.891Z,79.44
2023-01-27T09:42:14.103Z,80.58
2023-01-27T09:44:18.504Z,80.96
2023-01-27T09:46:41.666Z,79.73
2023-01-27T09:49:17.893Z,79.79
2023-01-27T09:51:22.539Z,78.25
2023-01-27T09:53:36.230Z,77.00
2023-01-27T09:55:46.952Z,76.55
2023-01-27T09:57:54.681Z,76.36
2023-01-27T10:00:08.330Z,75.30
2023-01-27T10:02:30.871Z,75.58
2023-01-27T10:05:03.694Z,76.15
2023-01-27T10:07:42.764Z,76.69
2023-01-27T10:09:53.255Z,78.14
2023-01-27T10:12:13.160Z,78.12
2023-01-27T10:14:38.564Z,78.23
2023-01-27T10:16:40.051Z,77.51
2023-01-27T10:18:59.991Z,76.59
2023-01-27T10:21:16.764Z,76.40
2023-01-27T10:23:40.829Z,76.34
2023-01-27T10:25:48.602Z,76.81
2023-01-27T10:27:56.678Z,76.45
2023-01-27T10:30:00.366Z,76.26
2023-01-27T10:32:16.087Z,76.25
2023-01-27T10:34:41.517Z,75.64
2023-01-27T10:36:43.013Z,75.77
2023-01-27T10:38:53.151Z,75.78
2023-01-27T10:41:03.499Z,76.20
2023-01-27T10:43:13.839Z,76.86
2023-01-27T10:45:20.277Z,77.42
2023-01-27T10:47:24.667Z,77.50
2023-01-27T10:49:35.706Z,76.86
2023-01-27T10:51:45.746Z,77.69
2023-01-27T10:54:20.489Z,79.66
2023-01-27T10:56:31.468Z,79.62
2023-01-27T10:58:39.625Z,79.33
2023-01-27T11:03:24.134Z,79.75
2023-01-27T11:05:31.687Z,79.29
2023-01-27T11:07:40.727Z,78.98
2023-01-27T11:10:04.507Z,78.97
2023-01-27T11:12:11.292Z,78.26
2023-01-27T11:14:16.057Z,78.54
2023-01-27T11:16:19.496Z,77.48
2023-01-27T11:18:25.927Z,77.66
2023-01-27T11:20:37.464Z,78.06
2023-01-27T11:22:52.388Z,78.74
2023-01-27T11:25:06.687Z,78.01
2023-01-27T11:27:31.104Z,77.16
2023-01-27T11:29:41.315Z,76.54
2023-01-27T11:31:45.756Z,76.04
2023-01-27T11:34:09.189Z,75.05
2023-01-27T11:36:14.348Z,74.45
2023-01-27T11:38:19.952Z,74.33
2023-01-27T11:40:36.248Z,75.45
2023-01-27T11:42:38.140Z,74.99
2023-01-27T11:44:41.016Z,74.89
2023-01-27T11:46:43.538Z,74.78
2023-01-27T11:48:51.300Z,74.39
2023-01-27T11:50:53.444Z,74.61
2023-01-27T11:53:16.904Z,74.51
2023-01-27T11:55:21.170Z,74.47
2023-01-27T11:57:25.212Z,74.12
2023-01-27T11:59:33.485Z,74.60
2023-01-27T12:01:47.279Z,74.23
2023-01-27T12:03:57.520Z,74.14
2023-01-27T12:06:06.070Z,74.28
2023-01-27T12:08:07.683Z,73.63
2023-01-27T12:10:29.465Z,73.29
2023-01-27T12:12:31.077Z,73.48
2023-01-27T12:14:32.668Z,73.22
2023-01-27T12:16:44.016Z,72.61
2023-01-27T12:19:10.051Z,72.63
2023-01-27T12:21:11.915Z,73.09
2023-01-27T12:23:19.397Z,73.15
2023-01-27T12:25:29.340Z,73.69
2023-01-27T12:27:34.898Z,72.84
2023-01-27T12:29:42.425Z,73.13
2023-01-27T12:31:47.044Z,73.06
2023-01-27T12:33:59.764Z,72.62
2023-01-27T12:36:11.289Z,72.89
2023-01-27T12:38:24.031Z,75.39
2023-01-27T12:40:26.118Z,75.66
2023-01-27T12:42:57.959Z,76.20
2023-01-27T12:44:59.744Z,77.04
2023-01-27T12:47:03.230Z,76.46
2023-01-27T12:49:15.009Z,75.75
2023-01-27T12:51:24.850Z,74.91
2023-01-27T12:53:28.287Z,74.22
2023-01-27T12:55:32.159Z,74.78
2023-01-27T12:57:33.702Z,74.21
2023-01-27T12:59:35.893Z,73.75
2023-01-27T13:01:41.313Z,74.07
2023-01-27T13:03:43.019Z,75.74
2023-01-27T13:05:45.817Z,76.88
2023-01-27T13:07:50.729Z,78.28
2023-01-27T13:09:55.025Z,78.70
2023-01-27T13:11:59.037Z,79.38
2023-01-27T13:14:00.889Z,79.33
2023-01-27T13:16:15.028Z,78.26
2023-01-27T13:18:21.926Z,76.72
2023-01-27T13:20:28.761Z,76.97
2023-01-27T13:22:40.415Z,77.92
2023-01-27T13:24:42.652Z,78.50
2023-01-27T13:26:44.365Z,78.13
2023-01-27T13:29:04.552Z,76.94
2023-01-27T13:31:09.698Z,76.21
2023-01-27T13:33:37.981Z,76.29
2023-01-27T13:35:50.761Z,76.56
2023-01-27T13:38:22.867Z,76.22
2023-01-27T13:40:45.392Z,76.09
2023-01-27T13:43:25.981Z,76.71
2023-01-27T13:45:40.475Z,75.68
2023-01-27T13:47:49.899Z,75.49
2023-01-27T13:50:23.986Z,75.96
2023-01-27T13:52:25.768Z,75.48
2023-01-27T13:54:27.569Z,75.22
2023-01-27T13:56:43.852Z,75.54
2023-01-27T13:59:11.249Z,75.37
2023-01-27T14:01:25.538Z,75.96
2023-01-27T14:03:27.019Z,75.06
2023-01-27T14:05:53.165Z,75.49
2023-01-27T14:08:03.905Z,75.29
2023-01-27T14:10:22.558Z,75.37
2023-01-27T14:12:51.325Z,74.82
2023-01-27T14:15:08.500Z,74.71
2023-01-27T14:17:28.885Z,74.84
2023-01-27T14:19:40.452Z,74.37
2023-01-27T14:22:21.247Z,74.97
2023-01-27T14:24:25.886Z,74.74
2023-01-27T14:26:49.252Z,74.57
2023-01-27T14:29:17.297Z,74.56
2023-01-27T14:31:34.727Z,74.65
2023-01-27T14:33:55.133Z,74.68
2023-01-27T14:36:00.823Z,74.19
2023-01-27T14:38:32.790Z,74.45
2023-01-27T14:41:05.097Z,73.60
2023-01-27T14:43:37.118Z,73.78
2023-01-27T14:45:50.015Z,74.19
2023-01-27T14:48:29.200Z,74.39
2023-01-27T14:50:34.697Z,74.06
2023-01-27T14:52:56.475Z,74.31
2023-01-27T14:55:07.244Z,73.85
2023-01-27T14:57:24.008Z,73.45
2023-01-27T14:59:41.449Z,73.07
2023-01-27T15:01:56.822Z,73.93
2023-01-27T15:04:27.560Z,73.75
2023-01-27T15:06:52.991Z,74.08
2023-01-27T15:09:15.787Z,74.26
2023-01-27T15:11:26.316Z,73.35
2023-01-27T15:13:50.834Z,73.83
2023-01-27T15:15:55.574Z,73.86
2023-01-27T15:18:06.126Z,73.86
2023-01-27T15:20:46.703Z,73.94
2023-01-27T15:23:00.762Z,74.04
2023-01-27T15:25:05.075Z,73.96
2023-01-27T15:27:08.637Z,74.25
2023-01-27T15:29:14.346Z,74.31
2023-01-27T15:31:16.778Z,73.80
2023-01-27T15:33:56.373Z,74.05
2023-01-27T15:36:26.778Z,74.10
2023-01-27T15:38:35.157Z,74.05
2023-01-27T15:40:56.376Z,74.33
2023-01-27T15:42:58.058Z,74.38
2023-01-27T15:45:01.875Z,73.84
2023-01-27T15:47:13.042Z,73.88
2023-01-27T15:49:26.386Z,74.22
2023-01-27T15:51:29.215Z,74.17
2023-01-27T15:53:32.358Z,74.07
2023-01-27T15:55:35.288Z,74.04
2023-01-27T15:57:38.535Z,74.03
2023-01-27T15:59:58.535Z,73.91
2023-01-27T16:02:10.911Z,74.09
2023-01-27T16:04:24.368Z,74.12
2023-01-27T16:06:26.090Z,73.84
2023-01-27T16:08:32.068Z,73.90
2023-01-27T16:10:34.940Z,73.35
2023-01-27T16:12:47.875Z,73.78
2023-01-27T16:15:10.591Z,74.08
2023-01-27T16:17:21.173Z,73.49
2023-01-27T16:19:44.507Z,73.58
2023-01-27T16:22:01.923Z,73.43
2023-01-27T16:24:20.234Z,73.66
2023-01-27T16:26:45.033Z,74.47
2023-01-27T16:28:47.227Z,74.65
2023-01-27T16:30:58.785Z,74.54
2023-01-27T16:33:06.948Z,74.81
2023-01-27T16:35:17.920Z,74.19
2023-01-27T16:37:24.690Z,74.15
2023-01-27T16:39:50.246Z,73.52
2023-01-27T16:41:55.572Z,73.83
2023-01-27T16:44:06.800Z,73.31
2023-01-27T16:46:24.388Z,73.09
2023-01-27T16:48:42.226Z,72.35
2023-01-27T16:50:44.625Z,72.67
2023-01-27T16:52:46.298Z,73.22
2023-01-27T16:54:51.520Z,72.56
2023-01-27T16:56:53.250Z,72.81
2023-01-27T16:59:00.373Z,73.22
2023-01-27T17:01:02.577Z,73.08
2023-01-27T17:03:10.505Z,72.58
2023-01-27T17:05:17.000Z,71.92
2023-01-27T17:07:18.889Z,72.48
2023-01-27T17:09:23.663Z,72.11
2023-01-27T17:11:33.187Z,72.60
2023-01-27T17:13:43.655Z,72.67
2023-01-27T17:15:45.284Z,73.30
2023-01-27T17:17:49.138Z,72.56
2023-01-27T17:19:51.281Z,72.71
2023-01-27T17:21:58.081Z,72.44
2023-01-27T17:24:05.674Z,72.42
2023-01-27T17:26:16.288Z,72.64
2023-01-27T17:28:21.723Z,72.84
2023-01-27T17:30:26.282Z,72.24
2023-01-27T17:32:31.277Z,72.32
2023-01-27T17:34:33.187Z,72.23
2023-01-27T17:36:34.779Z,72.15
2023-01-27T17:38:51.534Z,71.56
2023-01-27T17:40:54.881Z,71.40
2023-01-27T17:42:56.532Z,72.03
2023-01-27T17:45:33.690Z,71.87
2023-01-27T17:47:35.319Z,71.70
2023-01-27T17:49:38.663Z,71.74
2023-01-27T17:51:57.763Z,71.61
2023-01-27T17:53:59.603Z,71.87
2023-01-27T17:56:14.881Z,72.14
2023-01-27T17:58:21.783Z,72.12
2023-01-27T18:00:27.563Z,72.04
2023-01-27T18:02:50.879Z,72.37
2023-01-27T18:04:53.339Z,72.22
2023-01-27T18:06:55.059Z,71.87
2023-01-27T18:08:59.495Z,71.95
2023-01-27T18:11:22.452Z,71.68
2023-01-27T18:13:37.019Z,72.07
2023-01-27T18:16:15.056Z,71.50
2023-01-27T18:18:28.339Z,71.66
2023-01-27T18:20:32.581Z,71.83
2023-01-27T18:22:34.234Z,71.61
2023-01-27T18:24:36.029Z,71.48
2023-01-27T18:26:37.565Z,71.43
2023-01-27T18:28:39.731Z,71.31
2023-01-27T18:30:51.230Z,71.69
2023-01-27T18:33:00.615Z,71.06
2023-01-27T18:35:02.388Z,71.29
2023-01-27T18:37:08.678Z,71.40
2023-01-27T18:39:25.662Z,71.28
2023-01-27T18:41:29.665Z,71.02
2023-01-27T18:43:31.283Z,71.11
2023-01-27T18:45:32.876Z,71.22
2023-01-27T18:47:35.141Z,71.92
2023-01-27T18:49:37.452Z,71.81
2023-01-27T18:51:39.029Z,71.77
2023-01-27T18:53:40.710Z,72.53
2023-01-27T18:55:42.487Z,72.55
2023-01-27T18:57:47.343Z,72.40
2023-01-27T18:59:49.206Z,72.65
2023-01-27T19:01:50.830Z,72.35
2023-01-27T19:03:55.523Z,72.71
2023-01-27T19:05:57.234Z,72.92
2023-01-27T19:07:59.210Z,73.41
2023-01-27T19:10:00.865Z,73.02
2023-01-27T19:12:02.417Z,73.35
2023-01-27T19:14:04.075Z,72.63
2023-01-27T19:16:11.189Z,73.21
2023-01-27T19:18:18.585Z,73.24
2023-01-27T19:20:23.715Z,72.94
2023-01-27T19:22:25.292Z,73.31
2023-01-27T19:24:26.987Z,73.02
2023-01-27T19:26:29.940Z,72.48
2023-01-27T19:28:38.463Z,72.78
2023-01-27T19:30:40.507Z,73.22
2023-01-27T19:32:42.221Z,72.83
2023-01-27T19:34:43.825Z,72.96
2023-01-27T19:36:45.987Z,73.26
2023-01-27T19:38:49.031Z,73.19
2023-01-27T19:40:50.694Z,73.53
2023-01-27T19:42:52.579Z,73.53
2023-01-27T19:44:54.131Z,73.73
2023-01-27T19:46:55.795Z,73.86
2023-01-27T19:48:57.358Z,73.20
2023-01-27T19:50:58.931Z,73.84
2023-01-27T19:53:00.555Z,73.55
2023-01-27T19:55:02.357Z,73.89
2023-01-27T19:57:05.067Z,74.05
2023-01-27T19:59:06.992Z,74.24
2023-01-27T20:01:09.489Z,74.18
2023-01-27T20:03:11.085Z,74.64
2023-01-27T20:05:13.390Z,74.58
2023-01-27T20:07:15.109Z,74.56
2023-01-27T20:09:16.788Z,74.14
2023-01-27T20:11:36.297Z,74.24
2023-01-27T20:13:37.879Z,74.08
2023-01-27T20:15:42.096Z,74.12
2023-01-27T20:17:43.830Z,74.37
2023-01-27T20:19:47.827Z,74.52
2023-01-27T20:21:50.231Z,74.64
2023-01-27T20:23:52.061Z,74.89
2023-01-27T20:25:56.203Z,75.30
2023-01-27T20:27:59.513Z,75.18
2023-01-27T20:30:01.185Z,75.77
2023-01-27T20:32:03.593Z,75.05
2023-01-27T20:34:05.191Z,74.96
2023-01-27T20:36:27.906Z,75.21
2023-01-27T20:38:30.119Z,75.47
2023-01-27T20:40:31.821Z,75.03
2023-01-27T20:42:33.562Z,74.78
2023-01-27T20:44:35.181Z,75.65
2023-01-27T20:46:36.729Z,75.53
2023-01-27T20:48:38.323Z,75.68
2023-01-27T20:50:39.905Z,75.35
2023-01-27T20:52:41.530Z,75.66
2023-01-27T20:54:43.109Z,75.33
2023-01-27T20:56:44.745Z,75.43
2023-01-27T20:58:47.146Z,75.52
2023-01-27T21:00:48.869Z,75.42
2023-01-27T21:02:50.498Z,75.63
2023-01-27T21:04:53.031Z,75.39
2023-01-27T21:06:54.662Z,75.49
2023-01-27T21:08:56.349Z,74.79
2023-01-27T21:11:02.297Z,74.99
2023-01-27T21:13:04.250Z,75.36
2023-01-27T21:15:09.737Z,74.62
2023-01-27T21:17:11.982Z,74.54
2023-01-27T21:19:13.768Z,74.61
2023-01-27T21:21:27.408Z,74.79
2023-01-27T21:23:29.139Z,74.09
2023-01-27T21:25:32.525Z,74.49
2023-01-27T21:27:34.263Z,74.16
2023-01-27T21:29:36.383Z,74.04
2023-01-27T21:31:40.226Z,74.06
2023-01-27T21:33:41.954Z,73.67
2023-01-27T21:35:43.722Z,73.61
2023-01-27T21:37:45.359Z,73.92
2023-01-27T21:39:46.896Z,73.95
2023-01-27T21:41:54.641Z,73.58
2023-01-27T21:44:14.493Z,73.29
2023-01-27T21:46:16.169Z,73.51
2023-01-27T21:48:17.783Z,73.43
2023-01-27T21:50:19.497Z,73.13
2023-01-27T21:52:42.501Z,73.43
2023-01-27T21:54:44.061Z,72.80
2023-01-27T21:56:45.714Z,73.46
2023-01-27T21:58:47.313Z,73.28
2023-01-27T22:00:48.887Z,72.99
2023-01-27T22:02:59.634Z,73.01
2023-01-27T22:05:01.319Z,72.88
2023-01-27T22:07:02.927Z,72.53
2023-01-27T22:09:04.539Z,72.66
2023-01-27T22:11:09.123Z,72.41
2023-01-27T22:13:11.963Z,72.68
2023-01-27T22:15:15.232Z,73.30
2023-01-27T22:17:19.026Z,73.23
2023-01-27T22:19:21.625Z,72.77
2023-01-27T22:21:23.272Z,72.67
2023-01-27T22:23:24.914Z,72.71
2023-01-27T22:25:27.510Z,72.64
2023-01-27T22:27:29.209Z,72.72
2023-01-27T22:29:30.856Z,72.85
2023-01-27T22:31:32.418Z,73.23
2023-01-27T22:33:35.649Z,73.24
2023-01-27T22:35:37.194Z,73.20
2023-01-27T22:37:38.821Z,73.21
2023-01-27T22:39:42.404Z,73.56
2023-01-27T22:41:45.182Z,73.86
2023-01-27T22:43:49.919Z,73.41
2023-01-27T22:45:51.570Z,73.60
2023-01-27T22:47:53.313Z,73.20
2023-01-27T22:49:54.899Z,73.34
2023-01-27T22:51:56.564Z,72.78
2023-01-27T22:53:58.175Z,73.56
2023-01-27T22:56:01.157Z,73.04
2023-01-27T22:58:02.861Z,73.88
2023-01-27T23:00:06.104Z,73.45
2023-01-27T23:02:07.725Z,73.67
2023-01-27T23:04:11.960Z,73.68
2023-01-27T23:06:13.912Z,73.79
2023-01-27T23:08:16.053Z,73.44
2023-01-27T23:10:17.808Z,73.29
2023-01-27T23:12:19.455Z,73.71
2023-01-27T23:14:20.994Z,73.76
2023-01-27T23:16:23.517Z,73.79
2023-01-27T23:18:25.490Z,73.86
2023-01-27T23:20:27.123Z,74.36
2023-01-27T23:22:28.770Z,74.65
2023-01-27T23:24:30.536Z,73.81
2023-01-27T23:26:32.108Z,73.64
2023-01-27T23:28:34.291Z,73.30
2023-01-27T23:30:36.040Z,73.58
2023-01-27T23:32:38.277Z,73.34
2023-01-27T23:34:39.858Z,73.31
2023-01-27T23:36:41.565Z,73.47
2023-01-27T23:38:43.167Z,73.72
2023-01-27T23:40:44.798Z,73.64
2023-01-27T23:42:46.473Z,73.04
2023-01-27T23:44:48.057Z,73.28
2023-01-27T23:46:49.755Z,72.91
2023-01-27T23:48:52.337Z,72.66
2023-01-27T23:50:53.912Z,73.33
2023-01-27T23:52:55.586Z,73.13
2023-01-27T23:54:57.252Z,73.87
2023-01-27T23:56:59.297Z,73.46
2023-01-27T23:59:00.915Z,73.39
